Flight Track Log - Related Links

Times and Time Zones

All times are in EDT time to prevent confusion due to time zone crossing. See the FIN646 flight status page for this flight to view local times or setup timezone preferences in your user account.

Time Position Orientation Groundspeed Altitude Reporting Facility
EDT Latitude Longitude Course Direction KTS MPH feet Rate Location/Type
Wed 12:23:00 PM 59.7301 18.5664 76° East  Level Estimated
Wed 12:24:00 PM 59.7571 18.7975 77° East  Level Estimated
Wed 12:25:00 PM 59.7838 19.0289 77° East  Level Estimated
Wed 12:26:00 PM 59.8100 19.2607 77° East  Level Estimated
Wed 12:27:00 PM 59.8358 19.4928 77° East  Level Estimated
Wed 12:28:00 PM 59.8612 19.7253 78° East  Level Estimated
Wed 12:29:00 PM 59.8862 19.9582 78° East  Level Estimated
Wed 12:30:00 PM 59.9108 20.1914 78° East  Level Estimated
Wed 12:31:00 PM 59.9349 20.4250 78° East  Level Estimated
Wed 12:32:00 PM 59.9587 20.6588 78° East  Level Estimated
Wed 12:33:00 PM 59.9820 20.8931 79° East  Level Estimated
Wed 12:34:00 PM 60.0049 21.1276 79° East  Level Estimated
Wed 12:35:00 PM 60.0274 21.3625 79° East  Level Estimated
Wed 12:36:00 PM 60.0495 21.5977 79° East  Level Estimated
Wed 12:37:00 PM 60.0712 21.8332 79° East  Level Estimated
Wed 12:38:00 PM 60.0924 22.0690 80° East  Level Estimated
Wed 12:39:00 PM 60.1133 22.3051 80° East  Level Estimated
Wed 12:40:00 PM 60.1337 22.5415 80° East  Level Estimated
Wed 12:41:00 PM 60.1536 22.7782 80° East  Level Estimated
Wed 12:42:00 PM 60.1732 23.0152 80° East  Level Estimated
Wed 12:43:00 PM 60.1923 23.2525 81° East  Level Estimated
Wed 12:44:00 PM 60.2110 23.4900 81° East  Level Estimated
Wed 12:45:00 PM 60.2293 23.7278 81° East  Level Estimated
Wed 12:46:00 PM 60.2472 23.9659 81° East  Level Estimated
Wed 12:47:00 PM 60.2646 24.2042 82° East  Level Estimated
Wed 12:48:00 PM 60.2817 24.4428 82° East  Level Estimated
Wed 12:49:00 PM 60.2982 24.6816 82° East  Level Estimated
Wed 12:50:00 PM 60.3144 24.9206 82° East  Level Estimated
Wed 12:51:00 PM 60.3172 24.9633 82° East  Level Estimated
Wed 12:52:00 PM 60.3172 24.9633 37° Northeast  Level Estimated
Wed 12:53:00 PM 60.3172 24.9633 37° Northeast  Level Estimated
Wed 12:54:00 PM 60.3172 24.9633 37° Northeast  Level Estimated
Wed 12:55:00 PM 60.3172 24.9633 37° Northeast  Level Estimated
Wed 12:56:00 PM 60.3172 24.9633 37° Northeast  Level Estimated
Wed 12:57:00 PM 60.3172 24.9633 37° Northeast  Level Estimated
Wed 12:58:00 PM 60.3172 24.9633 37° Northeast  Level Estimated
Wed 12:59:00 PM 60.3172 24.9633 37° Northeast  Level Estimated
Wed 01:00:00 PM 60.3172 24.9633 37° Northeast  Level Estimated
Wed 01:01:00 PM 60.3172 24.9633 37° Northeast  Level Estimated
Wed 01:02:00 PM 60.3172 24.9633 37° Northeast  Level Estimated
Wed 01:03:00 PM 60.3172 24.9633 37° Northeast  Level Estimated

Login

Don't have an account? Register now (free) for customized features, flight alerts, and more!